createdAt,value
2024-05-09T00:02:20.774Z,4.50
2024-05-09T00:07:26.012Z,4.30
2024-05-09T00:12:31.284Z,4.20
2024-05-09T00:17:36.825Z,4.20
2024-05-09T00:22:42.486Z,4.10
2024-05-09T00:27:47.830Z,4.10
2024-05-09T00:32:53.391Z,4.10
2024-05-09T00:37:58.807Z,4.00
2024-05-09T00:43:04.028Z,4.00
2024-05-09T00:48:12.264Z,3.90
2024-05-09T00:53:19.375Z,3.80
2024-05-09T00:58:27.396Z,3.70
2024-05-09T01:03:32.976Z,3.70
2024-05-09T01:08:38.947Z,3.70
2024-05-09T01:13:46.023Z,3.60
2024-05-09T01:18:51.525Z,3.60
2024-05-09T01:23:56.926Z,3.60
2024-05-09T01:29:02.158Z,3.60
2024-05-09T01:34:07.625Z,3.40
2024-05-09T01:39:12.917Z,3.40
2024-05-09T01:44:18.316Z,3.40
2024-05-09T01:49:23.886Z,3.30
2024-05-09T01:54:30.008Z,3.30
2024-05-09T01:59:35.557Z,3.30
2024-05-09T02:04:40.996Z,3.20
2024-05-09T02:09:46.552Z,3.10
2024-05-09T02:14:52.934Z,3.10
2024-05-09T02:19:58.333Z,3.10
2024-05-09T02:25:03.522Z,3.10
2024-05-09T02:30:18.762Z,3.00
2024-05-09T02:35:17.986Z,3.00
2024-05-09T02:40:33.028Z,3.00
2024-05-09T02:45:30.040Z,3.00
2024-05-09T02:50:39.118Z,3.00
2024-05-09T02:55:43.580Z,2.90
2024-05-09T03:00:49.212Z,2.90
2024-05-09T03:05:54.585Z,2.80
2024-05-09T03:10:59.959Z,2.80
2024-05-09T03:16:05.370Z,2.80
2024-05-09T03:21:10.804Z,2.80
2024-05-09T03:26:18.258Z,2.90
2024-05-09T03:31:23.597Z,2.90
2024-05-09T03:36:28.842Z,3.00
2024-05-09T03:41:34.042Z,3.00
2024-05-09T03:46:40.457Z,3.00
2024-05-09T03:51:45.776Z,3.10
2024-05-09T03:56:52.744Z,3.10
2024-05-09T04:01:58.173Z,3.30
2024-05-09T04:07:04.075Z,3.40
2024-05-09T04:12:09.624Z,3.40
2024-05-09T04:17:17.424Z,3.50
2024-05-09T04:22:22.777Z,3.70
2024-05-09T04:27:28.062Z,3.90
2024-05-09T04:32:34.439Z,4.10
2024-05-09T04:37:39.787Z,4.40
2024-05-09T04:42:45.052Z,4.60
2024-05-09T04:47:50.422Z,4.80
2024-05-09T04:52:56.099Z,5.00
2024-05-09T04:58:02.027Z,5.20
2024-05-09T05:03:13.971Z,5.50
2024-05-09T05:08:19.571Z,5.90
2024-05-09T05:13:25.991Z,6.30
2024-05-09T05:18:31.389Z,6.60
2024-05-09T05:23:39.582Z,7.00
2024-05-09T05:28:45.097Z,7.30
2024-05-09T05:33:50.499Z,7.70
2024-05-09T05:38:57.256Z,8.20
2024-05-09T05:44:02.644Z,8.60
2024-05-09T05:49:08.244Z,9.10
2024-05-09T05:54:13.728Z,9.70
2024-05-09T05:59:19.077Z,10.20
2024-05-09T06:04:24.488Z,10.70
2024-05-09T06:09:29.935Z,11.40
2024-05-09T06:14:35.186Z,11.70
2024-05-09T06:19:40.919Z,12.20
2024-05-09T06:24:46.408Z,12.70
2024-05-09T06:29:51.770Z,13.40
2024-05-09T06:34:57.329Z,13.90
2024-05-09T06:40:05.533Z,14.50
2024-05-09T06:45:10.497Z,14.80
2024-05-09T06:50:24.011Z,15.20
2024-05-09T06:55:27.646Z,15.10
2024-05-09T07:00:39.666Z,15.10
2024-05-09T07:05:44.620Z,15.40
2024-05-09T07:10:52.792Z,16.10
2024-05-09T07:15:58.735Z,17.10
2024-05-09T07:21:04.230Z,17.80
2024-05-09T07:26:09.707Z,18.30
2024-05-09T07:31:15.821Z,18.90
2024-05-09T07:36:21.151Z,19.50
2024-05-09T07:41:27.421Z,19.30
2024-05-09T07:56:49.483Z,19.50
2024-05-09T08:01:55.317Z,19.90
2024-05-09T08:07:00.763Z,20.40
2024-05-09T08:12:09.168Z,20.30
2024-05-09T08:17:14.553Z,19.90
2024-05-09T08:22:19.907Z,21.30
2024-05-09T08:27:27.038Z,21.10
2024-05-09T08:32:34.151Z,19.50
2024-05-09T08:37:40.698Z,18.90
2024-05-09T08:42:53.460Z,18.20
2024-05-09T08:48:02.830Z,18.20
2024-05-09T08:53:09.531Z,18.20
2024-05-09T08:58:20.248Z,18.20
2024-05-09T09:03:28.705Z,18.40
2024-05-09T09:08:34.272Z,18.60
2024-05-09T09:13:42.023Z,18.40
2024-05-09T09:18:47.763Z,19.20
2024-05-09T09:23:53.583Z,19.30
2024-05-09T09:29:03.557Z,19.10
2024-05-09T09:34:10.444Z,19.50
2024-05-09T09:39:19.223Z,19.90
2024-05-09T09:44:24.598Z,20.20
2024-05-09T09:49:33.518Z,20.20
2024-05-09T09:54:40.302Z,19.10
2024-05-09T09:59:50.169Z,18.70
2024-05-09T10:04:56.941Z,18.90
2024-05-09T10:10:07.089Z,18.70
2024-05-09T10:15:14.405Z,18.80
2024-05-09T10:20:28.181Z,19.50
2024-05-09T10:25:32.484Z,20.20
2024-05-09T10:30:48.994Z,20.90
2024-05-09T10:35:55.977Z,21.30
2024-05-09T10:41:05.063Z,21.50
2024-05-09T10:46:11.890Z,21.60
2024-05-09T10:51:20.160Z,21.90
2024-05-09T10:56:29.056Z,22.00
2024-05-09T11:01:44.098Z,22.60
2024-05-09T11:06:52.123Z,23.20
2024-05-09T11:12:02.384Z,22.90
2024-05-09T11:17:12.342Z,23.70
2024-05-09T11:22:18.832Z,23.20
2024-05-09T11:27:25.178Z,22.80
2024-05-09T11:32:34.459Z,23.10
2024-05-09T11:37:42.207Z,23.30
2024-05-09T11:42:53.142Z,23.30
2024-05-09T11:47:57.067Z,23.60
2024-05-09T11:53:02.779Z,23.10
2024-05-09T11:58:13.094Z,23.00
2024-05-09T12:03:25.267Z,22.30
2024-05-09T12:08:56.687Z,22.50
2024-05-09T12:13:57.415Z,22.30
2024-05-09T12:19:03.042Z,22.80
2024-05-09T12:24:10.146Z,22.80
2024-05-09T12:29:15.737Z,23.20
2024-05-09T12:34:21.132Z,23.10
2024-05-09T12:39:31.961Z,22.40
2024-05-09T12:44:38.351Z,22.50
2024-05-09T12:49:44.128Z,22.70
2024-05-09T12:54:49.596Z,23.10
2024-05-09T12:59:55.021Z,22.80
2024-05-09T13:05:00.531Z,22.40
2024-05-09T13:10:13.780Z,22.40
2024-05-09T13:15:16.178Z,22.60
2024-05-09T13:20:35.192Z,22.80
2024-05-09T13:25:41.391Z,22.30
2024-05-09T13:30:48.075Z,21.80
2024-05-09T13:35:59.083Z,22.10
2024-05-09T13:46:32.937Z,22.30
2024-05-09T13:51:43.190Z,22.50
2024-05-09T13:56:49.757Z,22.40
2024-05-09T14:01:58.852Z,22.60
2024-05-09T14:07:05.981Z,22.60
2024-05-09T14:12:19.850Z,22.70
2024-05-09T14:17:22.311Z,22.60
2024-05-09T14:22:30.687Z,22.50
2024-05-09T14:27:40.886Z,22.30
2024-05-09T14:32:52.376Z,22.00
2024-05-09T14:38:06.501Z,22.00
2024-05-09T14:43:16.246Z,21.70
2024-05-09T14:48:27.879Z,21.80
2024-05-09T14:53:33.826Z,21.60
2024-05-09T14:58:39.326Z,21.40
2024-05-09T15:03:46.136Z,21.20
2024-05-09T15:09:03.279Z,21.10
2024-05-09T15:14:20.754Z,21.10
2024-05-09T15:19:45.779Z,21.00
2024-05-09T15:24:58.055Z,20.80
2024-05-09T15:30:06.860Z,20.80
2024-05-09T15:40:41.578Z,20.60
2024-05-09T15:45:49.183Z,20.60
2024-05-09T15:51:00.943Z,20.50
2024-05-09T15:56:28.675Z,20.40
2024-05-09T16:01:41.559Z,20.20
2024-05-09T16:06:49.600Z,20.20
2024-05-09T16:12:14.341Z,20.00
2024-05-09T16:17:14.637Z,19.90
2024-05-09T16:22:25.036Z,19.90
2024-05-09T16:27:37.736Z,19.80
2024-05-09T16:32:47.248Z,19.60
2024-05-09T16:37:52.724Z,19.50
2024-05-09T16:42:58.643Z,19.40
2024-05-09T16:48:07.970Z,19.40
2024-05-09T16:53:16.750Z,19.20
2024-05-09T16:58:25.189Z,19.10
2024-05-09T17:03:35.711Z,19.00
2024-05-09T17:08:55.467Z,18.70
2024-05-09T17:14:00.536Z,18.70
2024-05-09T17:19:06.854Z,18.50
2024-05-09T17:24:12.168Z,18.40
2024-05-09T17:29:21.576Z,18.20
2024-05-09T17:34:27.263Z,17.90
2024-05-09T17:39:34.709Z,17.60
2024-05-09T17:44:40.193Z,17.50
2024-05-09T17:49:45.668Z,17.20
2024-05-09T17:54:52.496Z,16.90
2024-05-09T18:00:00.644Z,16.60
2024-05-09T18:05:08.949Z,16.30
2024-05-09T18:10:22.566Z,16.00
2024-05-09T18:15:23.581Z,15.80
2024-05-09T18:20:40.292Z,15.50
2024-05-09T18:25:39.810Z,15.30
2024-05-09T18:30:45.341Z,14.80
2024-05-09T18:35:52.166Z,14.70
2024-05-09T18:40:57.933Z,14.50
2024-05-09T18:46:14.719Z,14.30
2024-05-09T18:51:22.914Z,14.00
2024-05-09T18:56:30.832Z,13.80
2024-05-09T19:01:44.842Z,13.70
2024-05-09T19:06:54.123Z,13.50
2024-05-09T19:12:02.333Z,13.30
2024-05-09T19:17:17.514Z,13.20
2024-05-09T19:22:24.145Z,13.00
2024-05-09T19:27:30.165Z,12.80
2024-05-09T19:32:35.797Z,12.70
2024-05-09T19:37:43.903Z,12.50
2024-05-09T19:42:49.590Z,12.40
2024-05-09T19:47:55.113Z,12.30
2024-05-09T19:53:00.804Z,12.20
2024-05-09T19:58:09.144Z,12.00
2024-05-09T20:03:16.318Z,11.80
2024-05-09T20:08:22.959Z,11.60
2024-05-09T20:13:28.510Z,11.60
2024-05-09T20:18:34.209Z,11.50
2024-05-09T20:23:39.618Z,11.40
2024-05-09T20:28:46.500Z,11.20
2024-05-09T20:33:52.044Z,11.10
2024-05-09T20:38:58.453Z,11.00
2024-05-09T20:44:09.537Z,10.90
2024-05-09T20:49:18.442Z,10.80
2024-05-09T20:54:25.090Z,10.70
2024-05-09T20:59:31.005Z,10.60
2024-05-09T21:04:46.243Z,10.50
2024-05-09T21:09:51.852Z,10.40
2024-05-09T21:14:57.887Z,10.30
2024-05-09T21:20:17.029Z,10.20
2024-05-09T21:25:19.245Z,10.10
2024-05-09T21:30:32.728Z,10.00
2024-05-09T21:35:37.388Z,9.90
2024-05-09T21:40:46.443Z,9.90
2024-05-09T21:45:53.343Z,9.90
2024-05-09T21:50:58.724Z,9.90
2024-05-09T21:56:06.515Z,9.80
2024-05-09T22:01:14.602Z,9.70
2024-05-09T22:06:23.476Z,9.70
2024-05-09T22:11:32.044Z,9.60
2024-05-09T22:16:42.198Z,9.50
2024-05-09T22:21:47.730Z,9.40
2024-05-09T22:26:55.223Z,9.30
2024-05-09T22:32:00.510Z,9.20
2024-05-09T22:37:22.543Z,9.10
2024-05-09T22:42:24.852Z,9.20
2024-05-09T22:47:30.470Z,9.20
2024-05-09T22:52:37.545Z,9.10
2024-05-09T22:57:44.843Z,9.00
2024-05-09T23:02:50.153Z,9.00
2024-05-09T23:07:55.511Z,8.90
2024-05-09T23:13:00.912Z,8.90
2024-05-09T23:18:08.364Z,8.90
2024-05-09T23:23:15.614Z,8.80
2024-05-09T23:28:24.690Z,8.70
2024-05-09T23:33:30.416Z,8.70
2024-05-09T23:38:36.911Z,8.60
2024-05-09T23:43:42.237Z,8.60
2024-05-09T23:48:48.504Z,8.50
2024-05-09T23:53:54.098Z,8.40
2024-05-09T23:59:01.078Z,8.40
